sensor_id;sensor_type;location;lat;lon;timestamp;P1;durP1;ratioP1;P2;durP2;ratioP2
77262;SDS011;66373;52.334;4.806;2023-05-10T00:01:44;3.60;;;3.13;;
77262;SDS011;66373;52.334;4.806;2023-05-10T00:04:11;3.53;;;3.22;;
77262;SDS011;66373;52.334;4.806;2023-05-10T00:06:39;5.63;;;3.17;;
77262;SDS011;66373;52.334;4.806;2023-05-10T00:09:06;5.50;;;3.40;;
77262;SDS011;66373;52.334;4.806;2023-05-10T00:11:33;4.80;;;3.20;;
77262;SDS011;66373;52.334;4.806;2023-05-10T00:14:00;3.90;;;3.05;;
77262;SDS011;66373;52.334;4.806;2023-05-10T00:16:27;4.75;;;3.00;;
77262;SDS011;66373;52.334;4.806;2023-05-10T00:18:55;4.03;;;3.25;;
77262;SDS011;66373;52.334;4.806;2023-05-10T00:21:22;4.43;;;3.20;;
77262;SDS011;66373;52.334;4.806;2023-05-10T00:23:49;3.22;;;2.95;;
77262;SDS011;66373;52.334;4.806;2023-05-10T00:26:16;3.45;;;3.10;;
77262;SDS011;66373;52.334;4.806;2023-05-10T00:28:50;4.00;;;3.40;;
77262;SDS011;66373;52.334;4.806;2023-05-10T00:31:17;4.25;;;3.13;;
77262;SDS011;66373;52.334;4.806;2023-05-10T00:33:45;3.45;;;3.15;;
77262;SDS011;66373;52.334;4.806;2023-05-10T00:36:13;3.30;;;2.90;;
77262;SDS011;66373;52.334;4.806;2023-05-10T00:38:40;3.42;;;3.10;;
77262;SDS011;66373;52.334;4.806;2023-05-10T00:41:07;3.20;;;2.90;;
77262;SDS011;66373;52.334;4.806;2023-05-10T00:43:37;4.22;;;2.97;;
77262;SDS011;66373;52.334;4.806;2023-05-10T00:46:04;5.78;;;3.30;;
77262;SDS011;66373;52.334;4.806;2023-05-10T00:48:31;3.38;;;2.88;;
77262;SDS011;66373;52.334;4.806;2023-05-10T00:50:58;5.63;;;3.00;;
77262;SDS011;66373;52.334;4.806;2023-05-10T00:53:27;3.63;;;2.85;;
77262;SDS011;66373;52.334;4.806;2023-05-10T00:55:55;3.17;;;2.65;;
77262;SDS011;66373;52.334;4.806;2023-05-10T00:58:22;3.10;;;2.75;;
77262;SDS011;66373;52.334;4.806;2023-05-10T01:00:54;3.03;;;2.80;;
77262;SDS011;66373;52.334;4.806;2023-05-10T01:03:22;3.05;;;2.70;;
77262;SDS011;66373;52.334;4.806;2023-05-10T01:05:49;3.60;;;2.78;;
77262;SDS011;66373;52.334;4.806;2023-05-10T01:08:17;4.45;;;3.10;;
77262;SDS011;66373;52.334;4.806;2023-05-10T01:10:46;3.72;;;2.85;;
77262;SDS011;66373;52.334;4.806;2023-05-10T01:13:15;3.13;;;2.83;;
77262;SDS011;66373;52.334;4.806;2023-05-10T01:15:54;3.15;;;2.95;;
77262;SDS011;66373;52.334;4.806;2023-05-10T01:18:22;4.55;;;2.92;;
77262;SDS011;66373;52.334;4.806;2023-05-10T01:20:53;3.00;;;2.70;;
77262;SDS011;66373;52.334;4.806;2023-05-10T01:23:36;2.92;;;2.72;;
77262;SDS011;66373;52.334;4.806;2023-05-10T01:26:37;3.35;;;2.58;;
77262;SDS011;66373;52.334;4.806;2023-05-10T01:29:25;3.80;;;3.00;;
77262;SDS011;66373;52.334;4.806;2023-05-10T01:32:19;2.97;;;2.58;;
77262;SDS011;66373;52.334;4.806;2023-05-10T01:34:53;3.45;;;2.80;;
77262;SDS011;66373;52.334;4.806;2023-05-10T01:37:28;2.75;;;2.55;;
77262;SDS011;66373;52.334;4.806;2023-05-10T01:40:05;2.72;;;2.53;;
77262;SDS011;66373;52.334;4.806;2023-05-10T01:42:47;2.70;;;2.50;;
77262;SDS011;66373;52.334;4.806;2023-05-10T01:45:20;3.13;;;2.80;;
77262;SDS011;66373;52.334;4.806;2023-05-10T01:47:57;2.80;;;2.60;;
77262;SDS011;66373;52.334;4.806;2023-05-10T01:50:32;2.95;;;2.40;;
77262;SDS011;66373;52.334;4.806;2023-05-10T01:53:02;2.75;;;2.55;;
77262;SDS011;66373;52.334;4.806;2023-05-10T01:55:33;3.20;;;2.40;;
77262;SDS011;66373;52.334;4.806;2023-05-10T01:58:03;2.70;;;2.25;;
77262;SDS011;66373;52.334;4.806;2023-05-10T02:00:33;2.60;;;2.40;;
77262;SDS011;66373;52.334;4.806;2023-05-10T02:03:04;2.80;;;2.53;;
77262;SDS011;66373;52.334;4.806;2023-05-10T02:05:34;2.60;;;2.40;;
77262;SDS011;66373;52.334;4.806;2023-05-10T02:08:05;2.90;;;2.70;;
77262;SDS011;66373;52.334;4.806;2023-05-10T02:10:35;2.60;;;2.40;;
77262;SDS011;66373;52.334;4.806;2023-05-10T02:13:04;4.85;;;2.72;;
77262;SDS011;66373;52.334;4.806;2023-05-10T02:15:33;2.42;;;2.25;;
77262;SDS011;66373;52.334;4.806;2023-05-10T02:18:05;2.95;;;2.67;;
77262;SDS011;66373;52.334;4.806;2023-05-10T02:20:34;3.70;;;2.42;;
77262;SDS011;66373;52.334;4.806;2023-05-10T02:23:02;6.15;;;2.45;;
77262;SDS011;66373;52.334;4.806;2023-05-10T02:25:30;2.50;;;2.30;;
77262;SDS011;66373;52.334;4.806;2023-05-10T02:27:59;2.63;;;2.35;;
77262;SDS011;66373;52.334;4.806;2023-05-10T02:30:30;2.75;;;2.55;;
77262;SDS011;66373;52.334;4.806;2023-05-10T02:32:58;2.58;;;2.38;;
77262;SDS011;66373;52.334;4.806;2023-05-10T02:35:28;2.00;;;1.90;;
77262;SDS011;66373;52.334;4.806;2023-05-10T02:37:58;2.15;;;1.98;;
77262;SDS011;66373;52.334;4.806;2023-05-10T02:40:26;3.55;;;2.20;;
77262;SDS011;66373;52.334;4.806;2023-05-10T02:42:55;2.35;;;2.17;;
77262;SDS011;66373;52.334;4.806;2023-05-10T02:45:24;2.40;;;2.13;;
77262;SDS011;66373;52.334;4.806;2023-05-10T02:47:55;2.30;;;2.10;;
77262;SDS011;66373;52.334;4.806;2023-05-10T02:50:23;2.50;;;2.30;;
77262;SDS011;66373;52.334;4.806;2023-05-10T02:52:56;2.40;;;2.28;;
77262;SDS011;66373;52.334;4.806;2023-05-10T02:55:31;2.65;;;2.45;;
77262;SDS011;66373;52.334;4.806;2023-05-10T02:58:02;2.15;;;2.05;;
77262;SDS011;66373;52.334;4.806;2023-05-10T03:00:29;2.00;;;1.90;;
77262;SDS011;66373;52.334;4.806;2023-05-10T03:02:56;2.47;;;2.28;;
77262;SDS011;66373;52.334;4.806;2023-05-10T03:05:24;2.30;;;2.10;;
77262;SDS011;66373;52.334;4.806;2023-05-10T03:07:51;2.30;;;2.10;;
77262;SDS011;66373;52.334;4.806;2023-05-10T03:10:21;2.97;;;2.13;;
77262;SDS011;66373;52.334;4.806;2023-05-10T03:12:57;2.58;;;2.22;;
77262;SDS011;66373;52.334;4.806;2023-05-10T03:15:36;3.30;;;2.35;;
77262;SDS011;66373;52.334;4.806;2023-05-10T03:18:09;2.25;;;2.05;;
77262;SDS011;66373;52.334;4.806;2023-05-10T03:20:42;1.92;;;1.83;;
77262;SDS011;66373;52.334;4.806;2023-05-10T03:25:49;2.08;;;1.95;;
77262;SDS011;66373;52.334;4.806;2023-05-10T03:28:17;2.20;;;2.10;;
77262;SDS011;66373;52.334;4.806;2023-05-10T03:30:45;2.35;;;2.15;;
77262;SDS011;66373;52.334;4.806;2023-05-10T03:33:13;2.25;;;2.05;;
77262;SDS011;66373;52.334;4.806;2023-05-10T03:35:44;2.80;;;2.10;;
77262;SDS011;66373;52.334;4.806;2023-05-10T03:38:12;2.25;;;2.15;;
77262;SDS011;66373;52.334;4.806;2023-05-10T03:40:39;2.05;;;1.95;;
77262;SDS011;66373;52.334;4.806;2023-05-10T03:43:08;2.00;;;1.90;;
77262;SDS011;66373;52.334;4.806;2023-05-10T03:45:36;2.42;;;2.22;;
77262;SDS011;66373;52.334;4.806;2023-05-10T03:48:03;2.35;;;2.20;;
77262;SDS011;66373;52.334;4.806;2023-05-10T03:50:30;2.80;;;2.40;;
77262;SDS011;66373;52.334;4.806;2023-05-10T03:52:58;2.97;;;2.30;;
77262;SDS011;66373;52.334;4.806;2023-05-10T03:55:26;2.40;;;2.20;;
77262;SDS011;66373;52.334;4.806;2023-05-10T03:57:55;2.60;;;2.28;;
77262;SDS011;66373;52.334;4.806;2023-05-10T04:00:24;4.15;;;2.53;;
77262;SDS011;66373;52.334;4.806;2023-05-10T04:02:53;1.95;;;1.85;;
77262;SDS011;66373;52.334;4.806;2023-05-10T04:05:21;2.35;;;2.20;;
77262;SDS011;66373;52.334;4.806;2023-05-10T04:07:50;2.10;;;2.00;;
77262;SDS011;66373;52.334;4.806;2023-05-10T04:10:18;2.10;;;2.00;;
77262;SDS011;66373;52.334;4.806;2023-05-10T04:12:46;2.45;;;2.25;;
77262;SDS011;66373;52.334;4.806;2023-05-10T04:15:14;2.42;;;2.30;;
77262;SDS011;66373;52.334;4.806;2023-05-10T04:17:42;2.20;;;2.10;;
77262;SDS011;66373;52.334;4.806;2023-05-10T04:20:10;2.58;;;2.38;;
77262;SDS011;66373;52.334;4.806;2023-05-10T04:22:37;2.03;;;1.92;;
77262;SDS011;66373;52.334;4.806;2023-05-10T04:25:05;2.47;;;2.30;;
77262;SDS011;66373;52.334;4.806;2023-05-10T04:27:34;2.55;;;2.35;;
77262;SDS011;66373;52.334;4.806;2023-05-10T04:30:02;2.58;;;2.38;;
77262;SDS011;66373;52.334;4.806;2023-05-10T04:32:30;2.42;;;2.22;;
77262;SDS011;66373;52.334;4.806;2023-05-10T04:34:59;2.13;;;2.03;;
77262;SDS011;66373;52.334;4.806;2023-05-10T04:37:28;2.60;;;2.30;;
77262;SDS011;66373;52.334;4.806;2023-05-10T04:39:55;2.40;;;2.20;;
77262;SDS011;66373;52.334;4.806;2023-05-10T04:42:22;2.13;;;2.03;;
77262;SDS011;66373;52.334;4.806;2023-05-10T04:44:49;2.58;;;2.38;;
77262;SDS011;66373;52.334;4.806;2023-05-10T04:47:17;2.05;;;1.95;;
77262;SDS011;66373;52.334;4.806;2023-05-10T04:49:44;2.65;;;2.45;;
77262;SDS011;66373;52.334;4.806;2023-05-10T04:52:12;2.22;;;2.10;;
77262;SDS011;66373;52.334;4.806;2023-05-10T04:54:41;3.90;;;2.17;;
77262;SDS011;66373;52.334;4.806;2023-05-10T04:57:08;2.58;;;2.38;;
77262;SDS011;66373;52.334;4.806;2023-05-10T04:59:35;2.60;;;2.40;;
77262;SDS011;66373;52.334;4.806;2023-05-10T05:02:03;3.03;;;2.35;;
77262;SDS011;66373;52.334;4.806;2023-05-10T05:04:32;2.53;;;2.42;;
77262;SDS011;66373;52.334;4.806;2023-05-10T05:06:59;2.10;;;2.00;;
77262;SDS011;66373;52.334;4.806;2023-05-10T05:09:27;3.00;;;2.78;;
77262;SDS011;66373;52.334;4.806;2023-05-10T05:11:54;3.33;;;2.63;;
77262;SDS011;66373;52.334;4.806;2023-05-10T05:14:21;2.17;;;2.08;;
77262;SDS011;66373;52.334;4.806;2023-05-10T05:16:50;4.65;;;2.40;;
77262;SDS011;66373;52.334;4.806;2023-05-10T05:19:17;3.63;;;2.35;;
77262;SDS011;66373;52.334;4.806;2023-05-10T05:21:44;2.28;;;2.15;;
77262;SDS011;66373;52.334;4.806;2023-05-10T05:24:12;4.78;;;2.58;;
77262;SDS011;66373;52.334;4.806;2023-05-10T05:26:40;2.25;;;2.15;;
77262;SDS011;66373;52.334;4.806;2023-05-10T05:29:07;2.30;;;2.10;;
77262;SDS011;66373;52.334;4.806;2023-05-10T05:31:36;2.65;;;2.25;;
77262;SDS011;66373;52.334;4.806;2023-05-10T05:34:03;2.95;;;2.40;;
77262;SDS011;66373;52.334;4.806;2023-05-10T05:36:30;2.58;;;2.38;;
77262;SDS011;66373;52.334;4.806;2023-05-10T05:38:58;2.67;;;2.35;;
77262;SDS011;66373;52.334;4.806;2023-05-10T05:41:27;3.35;;;2.45;;
77262;SDS011;66373;52.334;4.806;2023-05-10T05:43:55;3.70;;;2.40;;
77262;SDS011;66373;52.334;4.806;2023-05-10T05:46:23;3.28;;;2.50;;
77262;SDS011;66373;52.334;4.806;2023-05-10T05:48:50;4.07;;;2.80;;
77262;SDS011;66373;52.334;4.806;2023-05-10T05:51:17;5.65;;;2.63;;
77262;SDS011;66373;52.334;4.806;2023-05-10T05:53:44;2.88;;;2.55;;
77262;SDS011;66373;52.334;4.806;2023-05-10T05:56:11;3.97;;;2.53;;
77262;SDS011;66373;52.334;4.806;2023-05-10T05:58:38;3.10;;;2.50;;
77262;SDS011;66373;52.334;4.806;2023-05-10T06:01:06;3.67;;;2.70;;
77262;SDS011;66373;52.334;4.806;2023-05-10T06:03:34;4.05;;;2.30;;
77262;SDS011;66373;52.334;4.806;2023-05-10T06:06:01;4.43;;;2.50;;
77262;SDS011;66373;52.334;4.806;2023-05-10T06:08:28;4.22;;;2.78;;
77262;SDS011;66373;52.334;4.806;2023-05-10T06:10:55;3.92;;;2.50;;
77262;SDS011;66373;52.334;4.806;2023-05-10T06:13:22;4.40;;;2.60;;
77262;SDS011;66373;52.334;4.806;2023-05-10T06:15:49;4.32;;;2.58;;
77262;SDS011;66373;52.334;4.806;2023-05-10T06:18:18;2.70;;;2.50;;
77262;SDS011;66373;52.334;4.806;2023-05-10T06:20:45;5.28;;;2.95;;
77262;SDS011;66373;52.334;4.806;2023-05-10T06:23:12;4.43;;;2.75;;
77262;SDS011;66373;52.334;4.806;2023-05-10T06:25:39;3.15;;;2.65;;
77262;SDS011;66373;52.334;4.806;2023-05-10T06:28:06;4.78;;;2.70;;
77262;SDS011;66373;52.334;4.806;2023-05-10T06:30:35;3.20;;;2.72;;
77262;SDS011;66373;52.334;4.806;2023-05-10T06:33:03;5.10;;;2.70;;
77262;SDS011;66373;52.334;4.806;2023-05-10T06:35:31;3.60;;;2.70;;
77262;SDS011;66373;52.334;4.806;2023-05-10T06:37:59;3.45;;;2.17;;
77262;SDS011;66373;52.334;4.806;2023-05-10T06:40:26;4.25;;;2.55;;
77262;SDS011;66373;52.334;4.806;2023-05-10T06:42:53;3.88;;;2.53;;
77262;SDS011;66373;52.334;4.806;2023-05-10T06:45:25;2.80;;;2.60;;
77262;SDS011;66373;52.334;4.806;2023-05-10T06:47:52;4.55;;;2.70;;
77262;SDS011;66373;52.334;4.806;2023-05-10T06:50:20;6.45;;;2.40;;
77262;SDS011;66373;52.334;4.806;2023-05-10T06:52:48;4.22;;;2.83;;
77262;SDS011;66373;52.334;4.806;2023-05-10T06:55:15;5.28;;;3.03;;
77262;SDS011;66373;52.334;4.806;2023-05-10T06:57:42;3.38;;;2.90;;
77262;SDS011;66373;52.334;4.806;2023-05-10T07:00:10;3.65;;;2.72;;
77262;SDS011;66373;52.334;4.806;2023-05-10T07:02:38;3.88;;;2.70;;
77262;SDS011;66373;52.334;4.806;2023-05-10T07:05:07;3.22;;;2.65;;
77262;SDS011;66373;52.334;4.806;2023-05-10T07:07:35;4.30;;;2.63;;
77262;SDS011;66373;52.334;4.806;2023-05-10T07:10:04;4.07;;;2.72;;
77262;SDS011;66373;52.334;4.806;2023-05-10T07:12:32;3.97;;;2.70;;
77262;SDS011;66373;52.334;4.806;2023-05-10T07:14:59;5.35;;;3.08;;
77262;SDS011;66373;52.334;4.806;2023-05-10T07:17:26;6.78;;;3.00;;
77262;SDS011;66373;52.334;4.806;2023-05-10T07:19:54;2.67;;;2.47;;
77262;SDS011;66373;52.334;4.806;2023-05-10T07:22:21;3.78;;;2.60;;
77262;SDS011;66373;52.334;4.806;2023-05-10T07:24:48;4.45;;;2.67;;
77262;SDS011;66373;52.334;4.806;2023-05-10T07:27:17;4.75;;;2.70;;
77262;SDS011;66373;52.334;4.806;2023-05-10T07:29:45;3.53;;;3.05;;
77262;SDS011;66373;52.334;4.806;2023-05-10T07:32:12;5.13;;;2.90;;
77262;SDS011;66373;52.334;4.806;2023-05-10T07:34:39;2.97;;;2.67;;
77262;SDS011;66373;52.334;4.806;2023-05-10T07:37:06;2.83;;;2.60;;
77262;SDS011;66373;52.334;4.806;2023-05-10T07:39:33;4.05;;;2.97;;
77262;SDS011;66373;52.334;4.806;2023-05-10T07:42:00;4.75;;;3.00;;
77262;SDS011;66373;52.334;4.806;2023-05-10T07:44:29;4.68;;;2.75;;
77262;SDS011;66373;52.334;4.806;2023-05-10T07:46:56;3.20;;;3.00;;
77262;SDS011;66373;52.334;4.806;2023-05-10T07:49:23;4.57;;;2.60;;
77262;SDS011;66373;52.334;4.806;2023-05-10T07:51:50;4.88;;;2.83;;
77262;SDS011;66373;52.334;4.806;2023-05-10T07:54:17;6.05;;;2.92;;
77262;SDS011;66373;52.334;4.806;2023-05-10T07:56:45;4.53;;;2.90;;
77262;SDS011;66373;52.334;4.806;2023-05-10T07:59:14;3.15;;;2.85;;
77262;SDS011;66373;52.334;4.806;2023-05-10T08:01:44;4.63;;;2.83;;
77262;SDS011;66373;52.334;4.806;2023-05-10T08:04:11;4.95;;;2.50;;
77262;SDS011;66373;52.334;4.806;2023-05-10T08:06:41;3.13;;;2.83;;
77262;SDS011;66373;52.334;4.806;2023-05-10T08:09:08;5.50;;;2.90;;
77262;SDS011;66373;52.334;4.806;2023-05-10T08:11:36;4.03;;;2.90;;
77262;SDS011;66373;52.334;4.806;2023-05-10T08:14:03;2.88;;;2.47;;
77262;SDS011;66373;52.334;4.806;2023-05-10T08:16:30;3.85;;;2.65;;
77262;SDS011;66373;52.334;4.806;2023-05-10T08:18:59;4.15;;;2.55;;
77262;SDS011;66373;52.334;4.806;2023-05-10T08:21:26;3.47;;;2.65;;
77262;SDS011;66373;52.334;4.806;2023-05-10T08:23:56;3.47;;;2.33;;
77262;SDS011;66373;52.334;4.806;2023-05-10T08:26:24;4.40;;;2.92;;
77262;SDS011;66373;52.334;4.806;2023-05-10T08:28:54;3.53;;;2.40;;
77262;SDS011;66373;52.334;4.806;2023-05-10T08:31:30;4.15;;;2.63;;
77262;SDS011;66373;52.334;4.806;2023-05-10T08:33:59;3.75;;;2.42;;
77262;SDS011;66373;52.334;4.806;2023-05-10T08:36:26;5.25;;;2.53;;
77262;SDS011;66373;52.334;4.806;2023-05-10T08:38:54;3.03;;;2.45;;
77262;SDS011;66373;52.334;4.806;2023-05-10T08:41:21;3.80;;;3.22;;
77262;SDS011;66373;52.334;4.806;2023-05-10T08:43:49;4.10;;;2.40;;
77262;SDS011;66373;52.334;4.806;2023-05-10T08:46:17;3.45;;;3.15;;
77262;SDS011;66373;52.334;4.806;2023-05-10T08:48:46;2.85;;;2.60;;
77262;SDS011;66373;52.334;4.806;2023-05-10T08:51:17;3.63;;;2.70;;
77262;SDS011;66373;52.334;4.806;2023-05-10T08:53:46;2.63;;;2.42;;
77262;SDS011;66373;52.334;4.806;2023-05-10T08:56:15;3.00;;;2.80;;
77262;SDS011;66373;52.334;4.806;2023-05-10T08:58:43;2.65;;;2.45;;
77262;SDS011;66373;52.334;4.806;2023-05-10T09:01:10;2.50;;;2.30;;
77262;SDS011;66373;52.334;4.806;2023-05-10T09:03:41;3.22;;;2.50;;
77262;SDS011;66373;52.334;4.806;2023-05-10T09:06:10;2.60;;;2.40;;
77262;SDS011;66373;52.334;4.806;2023-05-10T09:08:41;2.60;;;2.40;;
77262;SDS011;66373;52.334;4.806;2023-05-10T09:11:09;2.80;;;2.60;;
77262;SDS011;66373;52.334;4.806;2023-05-10T09:13:38;3.03;;;2.80;;
77262;SDS011;66373;52.334;4.806;2023-05-10T09:16:08;2.80;;;2.60;;
77262;SDS011;66373;52.334;4.806;2023-05-10T09:18:35;2.50;;;2.38;;
77262;SDS011;66373;52.334;4.806;2023-05-10T09:21:05;2.47;;;2.28;;
77262;SDS011;66373;52.334;4.806;2023-05-10T09:23:32;2.55;;;2.33;;
77262;SDS011;66373;52.334;4.806;2023-05-10T09:26:04;2.92;;;2.33;;
77262;SDS011;66373;52.334;4.806;2023-05-10T09:28:32;2.97;;;2.55;;
77262;SDS011;66373;52.334;4.806;2023-05-10T09:30:59;2.53;;;2.33;;
77262;SDS011;66373;52.334;4.806;2023-05-10T09:33:26;2.72;;;2.53;;
77262;SDS011;66373;52.334;4.806;2023-05-10T09:35:53;4.10;;;2.50;;
77262;SDS011;66373;52.334;4.806;2023-05-10T09:38:21;3.67;;;2.40;;
77262;SDS011;66373;52.334;4.806;2023-05-10T09:40:50;3.58;;;2.38;;
77262;SDS011;66373;52.334;4.806;2023-05-10T09:43:22;2.90;;;2.70;;
77262;SDS011;66373;52.334;4.806;2023-05-10T09:45:49;3.70;;;2.80;;
77262;SDS011;66373;52.334;4.806;2023-05-10T09:48:18;2.75;;;2.53;;
77262;SDS011;66373;52.334;4.806;2023-05-10T09:50:56;2.50;;;2.30;;
77262;SDS011;66373;52.334;4.806;2023-05-10T09:53:23;2.53;;;2.33;;
77262;SDS011;66373;52.334;4.806;2023-05-10T09:55:50;2.90;;;2.70;;
77262;SDS011;66373;52.334;4.806;2023-05-10T09:58:17;3.67;;;2.70;;
77262;SDS011;66373;52.334;4.806;2023-05-10T10:00:46;2.67;;;2.42;;
77262;SDS011;66373;52.334;4.806;2023-05-10T10:03:19;2.60;;;2.40;;
77262;SDS011;66373;52.334;4.806;2023-05-10T10:05:48;4.32;;;3.00;;
77262;SDS011;66373;52.334;4.806;2023-05-10T10:08:17;3.30;;;3.00;;
77262;SDS011;66373;52.334;4.806;2023-05-10T10:10:45;2.90;;;2.70;;
77262;SDS011;66373;52.334;4.806;2023-05-10T10:13:13;3.92;;;2.90;;
77262;SDS011;66373;52.334;4.806;2023-05-10T10:15:40;5.63;;;3.63;;
77262;SDS011;66373;52.334;4.806;2023-05-10T10:18:15;3.15;;;2.95;;
77262;SDS011;66373;52.334;4.806;2023-05-10T10:20:42;3.95;;;3.53;;
77262;SDS011;66373;52.334;4.806;2023-05-10T10:23:10;3.65;;;3.35;;
77262;SDS011;66373;52.334;4.806;2023-05-10T10:25:40;5.18;;;3.20;;
77262;SDS011;66373;52.334;4.806;2023-05-10T10:28:13;5.63;;;3.55;;
77262;SDS011;66373;52.334;4.806;2023-05-10T10:30:49;6.55;;;3.17;;
77262;SDS011;66373;52.334;4.806;2023-05-10T10:33:42;5.20;;;3.50;;
77262;SDS011;66373;52.334;4.806;2023-05-10T10:36:29;4.13;;;3.10;;
77262;SDS011;66373;52.334;4.806;2023-05-10T10:39:05;4.88;;;3.47;;
77262;SDS011;66373;52.334;4.806;2023-05-10T10:41:36;5.53;;;3.50;;
77262;SDS011;66373;52.334;4.806;2023-05-10T10:44:25;8.05;;;3.22;;
77262;SDS011;66373;52.334;4.806;2023-05-10T10:47:04;3.75;;;2.95;;
77262;SDS011;66373;52.334;4.806;2023-05-10T10:49:42;3.83;;;3.38;;
77262;SDS011;66373;52.334;4.806;2023-05-10T10:52:24;3.58;;;3.15;;
77262;SDS011;66373;52.334;4.806;2023-05-10T10:54:58;3.17;;;2.80;;
77262;SDS011;66373;52.334;4.806;2023-05-10T10:57:27;4.25;;;3.25;;
77262;SDS011;66373;52.334;4.806;2023-05-10T11:02:52;7.18;;;3.00;;
77262;SDS011;66373;52.334;4.806;2023-05-10T11:05:33;3.70;;;2.95;;
77262;SDS011;66373;52.334;4.806;2023-05-10T11:08:08;6.22;;;3.28;;
77262;SDS011;66373;52.334;4.806;2023-05-10T11:10:39;4.10;;;2.80;;
77262;SDS011;66373;52.334;4.806;2023-05-10T11:13:17;5.07;;;3.17;;
77262;SDS011;66373;52.334;4.806;2023-05-10T11:15:54;2.97;;;2.70;;
77262;SDS011;66373;52.334;4.806;2023-05-10T11:18:23;5.53;;;2.90;;
77262;SDS011;66373;52.334;4.806;2023-05-10T11:20:55;4.07;;;2.70;;
77262;SDS011;66373;52.334;4.806;2023-05-10T11:23:29;3.55;;;2.80;;
77262;SDS011;66373;52.334;4.806;2023-05-10T11:25:57;3.85;;;2.92;;
77262;SDS011;66373;52.334;4.806;2023-05-10T11:28:25;4.15;;;2.63;;
77262;SDS011;66373;52.334;4.806;2023-05-10T11:30:53;4.05;;;2.88;;
77262;SDS011;66373;52.334;4.806;2023-05-10T11:33:21;2.95;;;2.75;;
77262;SDS011;66373;52.334;4.806;2023-05-10T11:35:48;2.95;;;2.70;;
77262;SDS011;66373;52.334;4.806;2023-05-10T11:38:17;3.22;;;2.80;;
77262;SDS011;66373;52.334;4.806;2023-05-10T11:40:44;4.30;;;2.55;;
77262;SDS011;66373;52.334;4.806;2023-05-10T11:43:11;8.15;;;3.03;;
77262;SDS011;66373;52.334;4.806;2023-05-10T11:45:39;3.35;;;2.60;;
77262;SDS011;66373;52.334;4.806;2023-05-10T11:48:08;2.72;;;2.53;;
77262;SDS011;66373;52.334;4.806;2023-05-10T11:50:35;3.17;;;2.72;;
77262;SDS011;66373;52.334;4.806;2023-05-10T11:53:02;4.80;;;3.05;;
77262;SDS011;66373;52.334;4.806;2023-05-10T11:55:34;3.10;;;2.88;;
77262;SDS011;66373;52.334;4.806;2023-05-10T11:58:02;2.72;;;2.50;;
77262;SDS011;66373;52.334;4.806;2023-05-10T12:00:29;3.05;;;2.70;;
77262;SDS011;66373;52.334;4.806;2023-05-10T12:02:59;2.72;;;2.53;;
77262;SDS011;66373;52.334;4.806;2023-05-10T12:05:27;3.28;;;2.92;;
77262;SDS011;66373;52.334;4.806;2023-05-10T12:13:10;3.40;;;3.10;;
77262;SDS011;66373;52.334;4.806;2023-05-10T12:15:43;3.10;;;2.88;;
77262;SDS011;66373;52.334;4.806;2023-05-10T12:18:11;3.65;;;3.25;;
77262;SDS011;66373;52.334;4.806;2023-05-10T12:20:39;3.40;;;3.10;;
77262;SDS011;66373;52.334;4.806;2023-05-10T12:23:08;5.30;;;3.55;;
77262;SDS011;66373;52.334;4.806;2023-05-10T12:25:37;5.03;;;3.50;;
77262;SDS011;66373;52.334;4.806;2023-05-10T12:28:07;3.55;;;3.20;;
77262;SDS011;66373;52.334;4.806;2023-05-10T12:30:36;4.82;;;4.10;;
77262;SDS011;66373;52.334;4.806;2023-05-10T12:33:07;5.70;;;3.75;;
77262;SDS011;66373;52.334;4.806;2023-05-10T12:35:44;5.50;;;3.85;;
77262;SDS011;66373;52.334;4.806;2023-05-10T12:38:25;4.88;;;4.38;;
77262;SDS011;66373;52.334;4.806;2023-05-10T12:40:55;4.45;;;3.85;;
77262;SDS011;66373;52.334;4.806;2023-05-10T12:43:24;6.07;;;4.20;;
77262;SDS011;66373;52.334;4.806;2023-05-10T12:45:51;4.32;;;3.90;;
77262;SDS011;66373;52.334;4.806;2023-05-10T12:48:19;4.90;;;3.83;;
77262;SDS011;66373;52.334;4.806;2023-05-10T12:50:46;7.28;;;4.93;;
77262;SDS011;66373;52.334;4.806;2023-05-10T12:53:14;7.28;;;4.63;;
77262;SDS011;66373;52.334;4.806;2023-05-10T12:55:42;5.22;;;4.30;;
77262;SDS011;66373;52.334;4.806;2023-05-10T12:58:09;6.28;;;4.00;;
77262;SDS011;66373;52.334;4.806;2023-05-10T13:00:40;5.28;;;4.47;;
77262;SDS011;66373;52.334;4.806;2023-05-10T13:03:09;7.18;;;4.13;;
77262;SDS011;66373;52.334;4.806;2023-05-10T13:05:36;6.53;;;4.40;;
77262;SDS011;66373;52.334;4.806;2023-05-10T13:08:03;7.38;;;4.55;;
77262;SDS011;66373;52.334;4.806;2023-05-10T13:10:30;6.10;;;3.90;;
77262;SDS011;66373;52.334;4.806;2023-05-10T13:13:02;6.63;;;4.40;;
77262;SDS011;66373;52.334;4.806;2023-05-10T13:15:29;4.97;;;4.13;;
77262;SDS011;66373;52.334;4.806;2023-05-10T13:17:58;4.82;;;3.80;;
77262;SDS011;66373;52.334;4.806;2023-05-10T13:20:25;4.95;;;3.75;;
77262;SDS011;66373;52.334;4.806;2023-05-10T13:22:53;6.13;;;4.03;;
77262;SDS011;66373;52.334;4.806;2023-05-10T13:25:20;6.50;;;4.10;;
77262;SDS011;66373;52.334;4.806;2023-05-10T13:27:49;4.35;;;3.88;;
77262;SDS011;66373;52.334;4.806;2023-05-10T13:30:18;5.53;;;3.83;;
77262;SDS011;66373;52.334;4.806;2023-05-10T13:32:45;8.02;;;4.03;;
77262;SDS011;66373;52.334;4.806;2023-05-10T13:35:14;4.60;;;3.78;;
77262;SDS011;66373;52.334;4.806;2023-05-10T13:37:44;3.65;;;3.35;;
77262;SDS011;66373;52.334;4.806;2023-05-10T13:40:11;6.25;;;3.50;;
77262;SDS011;66373;52.334;4.806;2023-05-10T13:42:39;5.70;;;3.70;;
77262;SDS011;66373;52.334;4.806;2023-05-10T13:45:07;6.13;;;3.50;;
77262;SDS011;66373;52.334;4.806;2023-05-10T13:47:35;6.18;;;3.80;;
77262;SDS011;66373;52.334;4.806;2023-05-10T13:50:03;7.22;;;4.00;;
77262;SDS011;66373;52.334;4.806;2023-05-10T13:52:34;5.03;;;3.92;;
77262;SDS011;66373;52.334;4.806;2023-05-10T13:55:01;4.82;;;3.65;;
77262;SDS011;66373;52.334;4.806;2023-05-10T13:57:29;4.25;;;3.63;;
77262;SDS011;66373;52.334;4.806;2023-05-10T13:59:56;6.25;;;3.88;;
77262;SDS011;66373;52.334;4.806;2023-05-10T14:02:23;4.90;;;3.88;;
77262;SDS011;66373;52.334;4.806;2023-05-10T14:04:52;5.40;;;3.75;;
77262;SDS011;66373;52.334;4.806;2023-05-10T14:07:19;4.28;;;3.80;;
77262;SDS011;66373;52.334;4.806;2023-05-10T14:09:49;5.70;;;3.95;;
77262;SDS011;66373;52.334;4.806;2023-05-10T14:12:16;5.20;;;3.65;;
77262;SDS011;66373;52.334;4.806;2023-05-10T14:14:43;9.23;;;4.65;;
77262;SDS011;66373;52.334;4.806;2023-05-10T14:17:11;5.88;;;4.28;;
77262;SDS011;66373;52.334;4.806;2023-05-10T14:19:40;6.60;;;4.13;;
77262;SDS011;66373;52.334;4.806;2023-05-10T14:22:10;6.72;;;4.05;;
77262;SDS011;66373;52.334;4.806;2023-05-10T14:24:38;9.32;;;3.75;;
77262;SDS011;66373;52.334;4.806;2023-05-10T14:27:10;6.15;;;3.92;;
77262;SDS011;66373;52.334;4.806;2023-05-10T14:29:38;6.95;;;4.05;;
77262;SDS011;66373;52.334;4.806;2023-05-10T14:32:08;8.07;;;4.22;;
77262;SDS011;66373;52.334;4.806;2023-05-10T14:34:37;5.97;;;4.10;;
77262;SDS011;66373;52.334;4.806;2023-05-10T14:37:04;5.85;;;4.03;;
77262;SDS011;66373;52.334;4.806;2023-05-10T14:39:32;8.02;;;4.55;;
77262;SDS011;66373;52.334;4.806;2023-05-10T14:42:00;7.00;;;4.22;;
77262;SDS011;66373;52.334;4.806;2023-05-10T14:44:30;6.20;;;4.47;;
77262;SDS011;66373;52.334;4.806;2023-05-10T14:46:57;6.93;;;4.75;;
77262;SDS011;66373;52.334;4.806;2023-05-10T14:49:24;7.05;;;4.50;;
77262;SDS011;66373;52.334;4.806;2023-05-10T14:51:52;10.93;;;5.07;;
77262;SDS011;66373;52.334;4.806;2023-05-10T14:54:21;6.03;;;3.90;;
77262;SDS011;66373;52.334;4.806;2023-05-10T14:56:48;7.20;;;4.38;;
77262;SDS011;66373;52.334;4.806;2023-05-10T14:59:16;6.80;;;4.10;;
77262;SDS011;66373;52.334;4.806;2023-05-10T15:01:45;6.15;;;4.18;;
77262;SDS011;66373;52.334;4.806;2023-05-10T15:04:13;6.18;;;4.03;;
77262;SDS011;66373;52.334;4.806;2023-05-10T15:06:43;7.57;;;4.43;;
77262;SDS011;66373;52.334;4.806;2023-05-10T15:09:12;7.15;;;3.92;;
77262;SDS011;66373;52.334;4.806;2023-05-10T15:11:40;6.88;;;4.57;;